createdAt,value
2018-02-19T05:29:28.698Z," 4.45"
2018-02-19T05:34:39.191Z," 4.50"
2018-02-19T05:39:47.692Z," 4.50"
2018-02-19T05:44:58.548Z," 4.49"
2018-02-19T05:50:06.054Z," 4.48"
2018-02-19T05:55:15.596Z," 4.48"
2018-02-19T06:00:32.548Z," 4.48"
2018-02-19T06:05:39.801Z," 4.48"
2018-02-19T06:10:50.621Z," 4.47"
2018-02-19T06:15:59.740Z," 4.48"
2018-02-19T06:21:08.456Z," 4.48"
2018-02-19T06:26:17.035Z," 4.48"
2018-02-19T06:31:22.064Z," 4.48"
2018-02-19T06:36:30.590Z," 4.47"
2018-02-19T06:41:39.340Z," 4.48"
2018-02-19T06:46:50.300Z," 4.48"
2018-02-19T06:52:00.412Z," 4.48"
2018-02-19T06:57:08.537Z," 4.47"
2018-02-19T07:02:15.399Z," 4.48"
2018-02-19T07:07:26.249Z," 4.47"
2018-02-19T07:12:30.991Z," 4.48"
2018-02-19T07:17:38.353Z," 4.49"
2018-02-19T07:22:47.204Z," 4.48"
2018-02-19T07:27:57.434Z," 4.48"
2018-02-19T07:33:04.734Z," 4.48"
2018-02-19T07:38:13.955Z," 4.46"
2018-02-19T07:43:24.246Z," 4.47"
2018-02-19T07:48:30.237Z," 4.48"
2018-02-19T07:53:38.779Z," 4.50"
2018-02-19T07:58:46.102Z," 4.50"
2018-02-19T08:03:52.109Z," 4.48"
2018-02-19T08:09:00.878Z," 4.48"
2018-02-19T08:14:09.137Z," 4.48"
2018-02-19T08:19:17.382Z," 4.46"
2018-02-19T11:56:07.574Z," 4.16"
2018-02-19T12:01:14.758Z," 4.14"
2018-02-19T12:06:24.759Z," 4.13"
2018-02-19T12:11:28.821Z," 4.13"
2018-02-19T12:16:35.619Z," 4.12"
2018-02-19T12:21:44.299Z," 4.12"
2018-02-19T12:26:52.276Z," 4.12"
2018-02-19T12:32:00.956Z," 4.11"
2018-02-19T12:37:04.846Z," 4.11"
2018-02-19T12:42:09.659Z," 4.11"
2018-02-19T12:47:18.332Z," 4.11"
2018-02-19T12:52:23.906Z," 4.10"
2018-02-19T12:57:32.994Z," 4.09"
2018-02-19T13:02:42.436Z," 4.08"
2018-02-19T13:07:50.965Z," 4.08"
2018-02-19T13:13:00.666Z," 4.08"
2018-02-19T13:18:03.373Z," 4.08"
2018-02-19T13:23:11.989Z," 4.08"
2018-02-19T13:28:17.071Z," 4.08"
2018-02-19T13:33:25.061Z," 4.08"
2018-02-19T13:38:35.334Z," 4.08"
2018-02-19T13:43:43.657Z," 4.08"
2018-02-19T13:48:49.315Z," 4.08"
2018-02-19T13:54:05.008Z," 4.11"
2018-02-19T13:59:09.604Z," 4.07"
2018-02-19T14:04:15.700Z," 4.07"
2018-02-19T14:09:24.263Z," 4.06"
2018-02-19T14:14:29.700Z," 4.07"
2018-02-19T14:19:38.731Z," 4.07"
2018-02-19T14:24:44.607Z," 4.06"
2018-02-19T14:29:53.648Z," 4.06"
2018-02-19T14:35:03.324Z," 4.06"
2018-02-19T14:40:11.841Z," 4.06"
2018-02-19T14:45:16.986Z," 4.06"
2018-02-19T14:50:25.856Z," 4.06"
2018-02-19T14:55:31.308Z," 4.06"
2018-02-19T15:00:38.690Z," 4.06"
2018-02-19T15:05:43.357Z," 4.06"
2018-02-19T15:10:48.330Z," 4.06"
2018-02-19T15:15:53.183Z," 4.06"
2018-02-19T15:20:58.123Z," 4.06"
2018-02-19T15:26:03.281Z," 4.06"
2018-02-19T15:31:11.825Z," 4.06"
2018-02-19T15:36:13.285Z," 4.06"
2018-02-19T15:41:17.517Z," 4.05"
2018-02-19T15:46:22.917Z," 4.05"
2018-02-19T15:51:32.174Z," 4.05"
2018-02-19T15:56:40.798Z," 4.05"
2018-02-19T16:01:48.643Z," 4.05"
2018-02-19T16:06:58.971Z," 4.04"
2018-02-19T16:12:09.189Z," 4.04"
2018-02-19T16:17:15.124Z," 4.04"
2018-02-19T16:22:19.783Z," 4.04"
2018-02-19T16:27:24.602Z," 4.02"
2018-02-19T16:32:30.102Z," 4.03"
2018-02-19T16:37:34.056Z," 4.03"
2018-02-19T16:42:39.487Z," 4.03"
2018-02-19T16:47:43.948Z," 4.02"
2018-02-19T16:52:47.480Z," 4.03"
2018-02-19T16:57:53.220Z," 4.02"
2018-02-19T17:03:01.986Z," 4.02"
2018-02-19T17:08:10.371Z," 4.02"
2018-02-19T17:13:18.923Z," 4.02"
2018-02-19T17:18:28.491Z," 4.02"
2018-02-19T17:23:38.507Z," 4.02"
2018-02-19T17:28:48.932Z," 4.01"
2018-02-19T17:33:55.982Z," 4.01"
2018-02-19T17:39:04.648Z," 3.99"
2018-02-19T17:44:10.101Z," 4.00"
2018-02-19T17:49:19.199Z," 4.00"
2018-02-19T17:54:25.269Z," 3.99"
2018-02-19T17:59:30.308Z," 3.99"
2018-02-19T18:04:37.944Z," 3.99"
2018-02-19T18:09:47.897Z," 3.98"
2018-02-19T18:14:57.750Z," 3.97"
2018-02-19T18:20:07.170Z," 3.97"
2018-02-19T18:25:15.221Z," 3.96"
2018-02-19T18:30:23.646Z," 3.96"
2018-02-19T18:35:31.669Z," 3.96"
2018-02-19T18:40:37.004Z," 3.95"
2018-02-19T18:45:46.461Z," 3.95"
2018-02-19T18:50:51.430Z," 3.95"
2018-02-19T18:56:00.944Z," 3.94"
2018-02-19T19:01:09.964Z," 3.92"
2018-02-19T19:06:19.017Z," 3.95"
2018-02-19T19:11:28.634Z," 3.93"
2018-02-19T19:16:38.504Z," 3.92"
2018-02-19T19:21:51.720Z," 3.92"
2018-02-19T19:26:58.178Z," 3.91"
2018-02-19T19:32:07.653Z," 3.91"
2018-02-19T19:37:17.624Z," 3.91"
2018-02-19T19:42:26.917Z," 3.91"
2018-02-19T19:47:31.829Z," 3.90"
2018-02-19T19:52:35.517Z," 3.90"
2018-02-19T19:57:45.290Z," 3.90"
2018-02-19T20:02:54.795Z," 3.89"
2018-02-19T20:08:00.671Z," 3.89"
2018-02-19T20:13:05.988Z," 3.88"
2018-02-19T20:18:13.716Z," 3.88"
2018-02-19T20:23:22.966Z," 3.87"
2018-02-19T20:28:32.363Z," 3.87"
2018-02-19T20:33:42.388Z," 3.86"
2018-02-19T20:38:48.583Z," 3.86"
2018-02-19T20:43:57.327Z," 3.86"
2018-02-19T20:49:05.905Z," 3.85"
2018-02-19T20:54:15.130Z," 3.85"
2018-02-19T20:59:24.653Z," 3.85"
2018-02-19T21:04:23.884Z," 3.85"
2018-02-19T21:09:31.293Z," 3.85"
2018-02-19T21:14:35.943Z," 3.84"
2018-02-19T21:19:39.462Z," 3.84"
2018-02-19T21:24:48.079Z," 3.84"
2018-02-19T21:29:58.161Z," 3.83"
2018-02-19T21:35:03.099Z," 3.83"
2018-02-19T21:40:12.186Z," 3.83"
2018-02-19T21:45:18.344Z," 3.83"
2018-02-19T21:50:27.768Z," 3.83"
2018-02-19T22:00:45.632Z," 3.83"
2018-02-19T22:05:55.540Z," 3.83"
2018-02-19T22:11:05.765Z," 3.82"
2018-02-19T22:16:15.088Z," 3.82"
2018-02-19T22:21:24.342Z," 3.82"
2018-02-19T22:26:34.246Z," 3.81"
2018-02-19T22:31:42.992Z," 3.81"
2018-02-19T22:36:53.855Z," 3.81"
2018-02-19T22:42:04.194Z," 3.80"
2018-02-19T22:47:13.602Z," 3.80"
2018-02-19T22:52:22.431Z," 3.80"
2018-02-19T22:57:31.589Z," 3.80"
2018-02-19T23:02:40.736Z," 3.80"
2018-02-19T23:07:46.365Z," 3.79"
2018-02-19T23:12:55.496Z," 3.79"
2018-02-19T23:18:03.627Z," 3.79"
2018-02-19T23:23:13.076Z," 3.78"
2018-02-19T23:28:23.275Z," 3.78"
2018-02-19T23:33:31.818Z," 3.78"
2018-02-19T23:38:40.268Z," 3.78"
2018-02-19T23:43:51.022Z," 3.78"
2018-02-19T23:48:57.288Z," 3.77"
2018-02-19T23:54:03.483Z," 3.77"
2018-02-19T23:59:12.042Z," 3.77"
